Time;durP1;ratioP1;P1;durP2;ratioP2;P2;SDS_P1;SDS_P2;PMS_P1;PMS_P2;Temp;Humidity;BMP_temperature;BMP_pressure;BME280_temperature;BME280_humidity;BME280_pressure;Samples;Min_cycle;Max_cycle;Signal;HPM_P1;HPM_P2
2022/09/10 00:00:57;;;;;;;3.97;3.67;;;18.90;99.90;;;;;;4993417;28;20454;-66
2022/09/10 00:03:23;;;;;;;4.43;3.87;;;18.90;99.90;;;;;;4993764;28;20417;-66
2022/09/10 00:05:49;;;;;;;3.60;3.40;;;18.90;99.90;;;;;;4959022;28;20211;-72
2022/09/10 00:08:16;;;;;;;3.70;3.50;;;18.70;99.90;;;;;;4993962;28;20498;-66
2022/09/10 00:10:45;;;;;;;4.70;3.90;;;18.70;99.90;;;;;;4993969;28;20792;-66
2022/09/10 00:13:13;;;;;;;4.37;4.07;;;18.70;99.90;;;;;;4975816;28;20774;-66
2022/09/10 00:15:47;;;;;;;5.27;3.97;;;18.70;99.90;;;;;;4993791;28;20415;-66
2022/09/10 00:18:15;;;;;;;3.93;3.73;;;18.70;99.90;;;;;;4993233;28;20403;-66
2022/09/10 00:20:46;;;;;;;3.90;3.70;;;18.80;99.90;;;;;;4993726;28;20462;-66
2022/09/10 00:23:17;;;;;;;4.20;4.00;;;18.80;99.90;;;;;;4993123;28;20458;-66
2022/09/10 00:25:44;;;;;;;4.20;4.00;;;18.80;99.90;;;;;;4993718;28;20461;-65
2022/09/10 00:28:10;;;;;;;4.20;4.00;;;18.80;99.90;;;;;;4993080;28;20827;-67
2022/09/10 00:30:43;;;;;;;3.93;3.60;;;18.90;99.90;;;;;;4993691;28;20458;-67
2022/09/10 00:33:10;;;;;;;4.20;3.90;;;18.90;99.90;;;;;;4992761;28;20177;-67
2022/09/10 00:35:36;;;;;;;5.00;4.60;;;18.90;99.90;;;;;;4993113;28;20466;-67
2022/09/10 00:38:03;;;;;;;4.67;4.27;;;18.80;99.90;;;;;;4992913;28;20435;-67
2022/09/10 00:40:30;;;;;;;4.30;4.00;;;18.80;99.90;;;;;;4959008;28;20975;-67
2022/09/10 00:42:56;;;;;;;4.63;4.17;;;18.90;99.90;;;;;;4992821;28;20767;-67
2022/09/10 00:45:27;;;;;;;4.13;3.93;;;18.70;99.90;;;;;;4993452;28;20411;-68
2022/09/10 00:47:58;;;;;;;4.40;4.17;;;18.40;99.90;;;;;;4992859;28;20437;-69
2022/09/10 00:50:37;;;;;;;3.87;3.67;;;18.40;99.90;;;;;;4993643;28;20399;-67
2022/09/10 00:53:07;;;;;;;4.03;3.83;;;18.40;99.90;;;;;;4992521;28;20965;-67
2022/09/10 00:55:36;;;;;;;4.67;4.33;;;18.50;99.90;;;;;;4993277;28;20442;-67
2022/09/10 00:58:03;;;;;;;4.50;4.30;;;18.60;99.90;;;;;;4992781;28;20458;-67
2022/09/10 01:00:30;;;;;;;4.33;4.07;;;18.70;99.90;;;;;;4993223;28;20466;-67
2022/09/10 01:02:57;;;;;;;5.00;4.60;;;18.70;99.90;;;;;;4992602;28;20887;-67
2022/09/10 01:05:24;;;;;;;4.10;3.90;;;18.70;99.90;;;;;;4996581;28;20502;-67
2022/09/10 01:07:51;;;;;;;4.03;3.67;;;18.80;99.90;;;;;;5000071;28;20415;-67
2022/09/10 01:10:23;;;;;;;3.60;3.40;;;18.80;99.90;;;;;;4981656;28;20426;-67
2022/09/10 01:13:04;;;;;;;4.17;3.87;;;18.60;99.90;;;;;;4999667;28;20387;-67
2022/09/10 01:15:44;;;;;;;3.53;3.33;;;18.50;99.90;;;;;;4999368;28;20470;-67
2022/09/10 01:18:44;;;;;;;3.67;3.47;;;18.50;99.90;;;;;;4999074;28;20399;-67
2022/09/10 01:21:19;;;;;;;3.50;3.30;;;18.40;99.90;;;;;;4999036;28;20846;-67
2022/09/10 01:24:08;;;;;;;3.00;2.90;;;18.40;99.90;;;;;;4999626;28;20429;-67
2022/09/10 01:26:49;;;;;;;3.63;3.43;;;18.50;99.90;;;;;;4999669;28;20403;-67
2022/09/10 01:29:36;;;;;;;4.20;4.00;;;18.40;99.90;;;;;;4998679;28;20407;-67
2022/09/10 01:32:07;;;;;;;3.60;3.40;;;18.30;99.90;;;;;;4998917;28;20871;-67
2022/09/10 01:34:41;;;;;;;3.90;3.57;;;18.40;99.90;;;;;;4999464;28;21057;-67
2022/09/10 01:37:16;;;;;;;3.50;3.20;;;18.40;99.90;;;;;;4996602;28;20477;-67
2022/09/10 01:39:43;;;;;;;3.80;3.57;;;18.30;99.90;;;;;;4999552;28;20417;-67
2022/09/10 01:42:09;;;;;;;3.90;3.60;;;18.40;99.90;;;;;;4998739;28;20450;-67
2022/09/10 01:44:46;;;;;;;3.77;3.50;;;18.40;99.90;;;;;;4999514;28;20414;-67
2022/09/10 01:47:23;;;;;;;5.67;3.83;;;18.40;99.90;;;;;;4998925;28;20167;-67
2022/09/10 01:50:05;;;;;;;4.10;3.83;;;18.40;99.90;;;;;;4999390;28;20398;-67
2022/09/10 01:52:36;;;;;;;3.60;3.40;;;18.50;99.90;;;;;;4999405;28;20761;-67
2022/09/10 01:55:34;;;;;;;3.87;3.77;;;18.50;99.90;;;;;;4998780;28;20836;-67
2022/09/10 01:58:31;;;;;;;4.20;4.00;;;18.50;99.90;;;;;;4998769;28;20477;-67
2022/09/10 02:01:19;;;;;;;3.73;3.60;;;18.60;99.90;;;;;;4998626;28;20542;-68
2022/09/10 02:03:47;;;;;;;3.90;3.70;;;18.60;99.90;;;;;;4999213;28;20415;-67
2022/09/10 02:06:17;;;;;;;3.50;3.23;;;18.60;99.90;;;;;;4998329;28;20430;-67
2022/09/10 02:08:47;;;;;;;3.63;3.43;;;18.70;99.90;;;;;;4999212;28;20398;-66
2022/09/10 02:11:13;;;;;;;3.43;3.13;;;18.70;99.90;;;;;;4998563;28;20811;-67
2022/09/10 02:13:43;;;;;;;3.50;3.30;;;18.70;99.90;;;;;;4999369;28;20415;-66
2022/09/10 02:16:18;;;;;;;4.00;3.10;;;18.80;99.90;;;;;;4996805;28;20426;-67
2022/09/10 02:18:45;;;;;;;3.93;3.57;;;18.80;99.90;;;;;;4996129;28;20422;-67
2022/09/10 02:21:11;;;;;;;4.30;3.47;;;18.90;99.90;;;;;;4995580;28;20463;-67
2022/09/10 02:23:43;;;;;;;3.60;3.40;;;19.00;99.90;;;;;;4994737;28;20890;-67
2022/09/10 02:26:09;;;;;;;3.43;3.33;;;19.00;99.90;;;;;;4995387;28;20403;-67
2022/09/10 02:28:36;;;;;;;3.20;3.10;;;19.00;99.90;;;;;;4995909;28;20494;-67
2022/09/10 02:31:02;;;;;;;3.50;3.30;;;19.00;99.90;;;;;;4995295;28;20407;-67
2022/09/10 02:33:27;;;;;;;3.37;3.17;;;19.00;99.90;;;;;;4994561;28;20414;-67
2022/09/10 02:35:54;;;;;;;3.47;3.27;;;19.00;99.90;;;;;;4995514;28;20255;-67
2022/09/10 02:38:20;;;;;;;4.33;3.23;;;19.00;99.90;;;;;;4977602;28;20446;-67
2022/09/10 02:40:48;;;;;;;3.30;3.00;;;19.00;99.90;;;;;;4978177;28;20461;-67
2022/09/10 02:43:15;;;;;;;6.07;3.40;;;19.00;99.90;;;;;;4995315;28;20426;-67
2022/09/10 02:45:40;;;;;;;3.60;3.40;;;19.10;99.90;;;;;;4995544;28;20755;-67
2022/09/10 02:48:06;;;;;;;3.73;3.53;;;19.10;99.90;;;;;;4977559;28;20438;-67
2022/09/10 02:50:32;;;;;;;4.00;3.80;;;19.10;99.90;;;;;;4978308;28;20175;-67
2022/09/10 02:52:59;;;;;;;4.13;3.93;;;19.00;99.90;;;;;;4995469;28;20505;-67
2022/09/10 02:55:26;;;;;;;4.40;4.10;;;19.00;99.90;;;;;;4995091;28;20814;-67
2022/09/10 02:57:53;;;;;;;6.10;4.10;;;19.00;99.90;;;;;;4995467;28;20403;-67
2022/09/10 03:00:19;;;;;;;4.10;3.90;;;19.00;99.90;;;;;;4994590;28;20415;-67
2022/09/10 03:02:46;;;;;;;5.00;4.70;;;19.00;99.90;;;;;;4977881;28;20422;-67
2022/09/10 03:05:13;;;;;;;4.17;3.73;;;19.00;99.90;;;;;;4977266;28;20418;-67
2022/09/10 03:07:39;;;;;;;4.30;4.00;;;19.00;99.90;;;;;;4995121;28;20428;-67
2022/09/10 03:10:05;;;;;;;3.60;3.50;;;18.90;99.90;;;;;;4994215;28;20935;-67
2022/09/10 03:12:32;;;;;;;4.00;3.60;;;18.90;99.90;;;;;;4995069;28;20194;-67
2022/09/10 03:14:57;;;;;;;3.70;3.50;;;18.90;99.90;;;;;;4961507;28;20906;-67
2022/09/10 03:17:24;;;;;;;3.60;3.47;;;18.90;99.90;;;;;;4994115;28;20457;-67
2022/09/10 03:19:50;;;;;;;4.67;4.20;;;18.90;99.90;;;;;;4995251;28;20542;-67
2022/09/10 03:22:16;;;;;;;4.33;4.03;;;18.70;99.90;;;;;;4994239;28;20486;-67
2022/09/10 03:24:42;;;;;;;4.47;4.17;;;18.60;99.90;;;;;;4994791;28;20408;-67
2022/09/10 03:27:08;;;;;;;4.63;4.23;;;18.50;99.90;;;;;;4994373;28;20760;-67
2022/09/10 03:29:35;;;;;;;4.30;4.00;;;18.60;99.90;;;;;;4994355;28;20214;-67
2022/09/10 03:32:01;;;;;;;4.73;4.50;;;18.60;99.90;;;;;;4994686;28;20415;-67
2022/09/10 03:34:27;;;;;;;4.67;4.30;;;18.60;99.90;;;;;;4994505;28;20419;-67
2022/09/10 03:36:53;;;;;;;5.40;5.10;;;18.60;99.90;;;;;;4994869;28;20470;-67
2022/09/10 03:39:19;;;;;;;5.40;5.10;;;18.60;99.90;;;;;;4994007;28;20543;-67
2022/09/10 03:41:45;;;;;;;5.53;5.10;;;18.60;99.90;;;;;;4994457;28;20461;-67
2022/09/10 03:44:11;;;;;;;5.63;5.33;;;18.60;99.90;;;;;;4993838;28;20187;-67
2022/09/10 03:46:37;;;;;;;5.80;5.40;;;18.60;99.90;;;;;;4994102;28;20411;-67
2022/09/10 03:49:05;;;;;;;5.00;4.70;;;18.60;99.90;;;;;;4993827;28;20542;-67
2022/09/10 03:51:32;;;;;;;5.40;5.00;;;18.60;99.90;;;;;;4994322;28;20411;-67
2022/09/10 03:53:59;;;;;;;4.93;4.53;;;18.60;99.90;;;;;;4993959;28;20413;-67
2022/09/10 03:56:26;;;;;;;4.83;4.60;;;18.70;99.90;;;;;;4993582;28;20404;-67
2022/09/10 03:58:52;;;;;;;4.80;4.50;;;18.70;99.90;;;;;;4993919;28;20925;-67
2022/09/10 04:01:18;;;;;;;5.00;4.73;;;18.80;99.90;;;;;;4993478;28;20557;-67
2022/09/10 04:03:45;;;;;;;5.10;4.60;;;18.80;99.90;;;;;;4976657;28;20179;-67
2022/09/10 04:06:13;;;;;;;4.73;4.50;;;18.80;99.90;;;;;;4993722;28;20436;-67
2022/09/10 04:08:39;;;;;;;4.97;4.57;;;18.90;99.90;;;;;;4976552;28;20435;-67
2022/09/10 04:11:05;;;;;;;5.83;5.07;;;18.90;99.90;;;;;;4993382;28;20780;-68
2022/09/10 04:13:31;;;;;;;5.17;4.70;;;18.90;99.90;;;;;;4993873;28;20429;-67
2022/09/10 04:15:59;;;;;;;4.53;4.13;;;19.00;99.90;;;;;;4994179;28;20410;-67
2022/09/10 04:18:30;;;;;;;4.40;4.20;;;19.00;99.90;;;;;;4993190;28;20422;-67
2022/09/10 04:20:56;;;;;;;4.27;4.07;;;19.00;99.90;;;;;;4993785;28;20458;-67
2022/09/10 04:23:22;;;;;;;4.73;4.40;;;19.00;99.90;;;;;;4993135;28;20566;-67
2022/09/10 04:25:48;;;;;;;4.73;4.40;;;19.00;99.90;;;;;;4993960;28;20180;-67
2022/09/10 04:28:15;;;;;;;4.73;4.23;;;18.90;99.90;;;;;;4992822;28;20533;-67
2022/09/10 04:30:42;;;;;;;4.20;4.00;;;18.90;99.90;;;;;;4993672;28;20456;-67
2022/09/10 04:33:08;;;;;;;4.30;3.90;;;18.90;99.90;;;;;;4992956;28;20411;-67
2022/09/10 04:35:34;;;;;;;4.73;4.33;;;19.00;99.90;;;;;;4993293;28;20977;-67
2022/09/10 04:37:59;;;;;;;4.60;3.87;;;18.90;99.90;;;;;;4993804;28;20183;-67
2022/09/10 04:40:26;;;;;;;4.40;4.10;;;18.90;99.90;;;;;;4992285;28;20543;-67
2022/09/10 04:42:51;;;;;;;4.83;4.50;;;18.70;99.90;;;;;;4993497;28;20262;-67
2022/09/10 04:45:18;;;;;;;5.03;4.57;;;18.60;99.90;;;;;;4975382;28;20963;-67
2022/09/10 04:47:45;;;;;;;4.30;4.10;;;18.50;99.90;;;;;;4993496;28;20254;-67
2022/09/10 04:50:12;;;;;;;5.30;4.80;;;18.50;99.90;;;;;;4992736;28;20501;-67
2022/09/10 04:52:38;;;;;;;4.60;4.30;;;18.50;99.90;;;;;;4975975;28;20418;-67
2022/09/10 04:55:04;;;;;;;4.17;3.93;;;18.40;99.90;;;;;;4993044;28;20762;-67
2022/09/10 04:57:29;;;;;;;4.80;4.23;;;18.50;99.90;;;;;;4992609;28;20234;-67
2022/09/10 04:59:55;;;;;;;4.47;4.17;;;18.40;99.90;;;;;;4992986;28;20446;-67
2022/09/10 05:02:21;;;;;;;4.37;4.17;;;18.50;99.90;;;;;;4974985;28;20607;-67
2022/09/10 05:04:47;;;;;;;5.33;4.83;;;18.50;99.90;;;;;;4993495;28;20411;-67
2022/09/10 05:07:12;;;;;;;4.93;4.60;;;18.40;99.90;;;;;;4992380;28;20692;-68
2022/09/10 05:09:38;;;;;;;4.57;4.27;;;18.30;99.90;;;;;;4993276;28;20179;-67
2022/09/10 05:12:04;;;;;;;4.93;4.53;;;18.30;99.90;;;;;;4993460;28;20263;-67
2022/09/10 05:14:30;;;;;;;4.57;4.27;;;18.30;99.90;;;;;;4975162;28;20184;-67
2022/09/10 05:16:56;;;;;;;4.83;4.40;;;18.40;99.90;;;;;;4993387;28;20411;-67
2022/09/10 05:19:21;;;;;;;3.60;3.50;;;18.40;99.90;;;;;;4992523;28;20211;-67
2022/09/10 05:21:47;;;;;;;4.27;3.97;;;18.50;99.90;;;;;;4993014;28;20968;-67
2022/09/10 05:24:14;;;;;;;5.07;4.67;;;18.40;99.90;;;;;;4992470;28;20176;-67
2022/09/10 05:26:40;;;;;;;4.83;4.53;;;18.40;99.90;;;;;;4993084;28;20762;-67
2022/09/10 05:29:06;;;;;;;4.20;4.00;;;18.40;99.90;;;;;;4993380;28;20471;-67
2022/09/10 05:31:32;;;;;;;4.87;4.47;;;18.50;99.90;;;;;;4992485;28;20442;-67
2022/09/10 05:34:00;;;;;;;5.23;4.83;;;18.40;99.90;;;;;;4992891;28;20651;-67
2022/09/10 05:36:27;;;;;;;4.43;4.23;;;18.30;99.90;;;;;;4992136;28;20549;-66
2022/09/10 05:38:56;;;;;;;5.60;5.30;;;18.00;99.90;;;;;;4992868;28;20525;-67
2022/09/10 05:41:22;;;;;;;4.53;4.33;;;17.90;99.90;;;;;;4992162;28;20546;-67
2022/09/10 05:43:48;;;;;;;4.73;4.53;;;17.90;99.90;;;;;;4992641;28;20517;-67
2022/09/10 05:46:14;;;;;;;5.13;4.77;;;17.80;99.90;;;;;;4992292;28;20168;-67
2022/09/10 05:48:40;;;;;;;6.20;5.60;;;17.80;99.90;;;;;;4992928;28;20422;-67
2022/09/10 05:51:06;;;;;;;5.20;4.90;;;17.90;99.90;;;;;;4992827;28;20778;-67
2022/09/10 05:53:32;;;;;;;5.40;5.10;;;17.90;99.90;;;;;;4995817;28;20180;-67
2022/09/10 05:55:58;;;;;;;5.83;5.37;;;17.80;99.90;;;;;;4996434;28;20414;-67
2022/09/10 05:58:26;;;;;;;6.20;5.80;;;17.80;99.90;;;;;;4995797;28;20409;-66
2022/09/10 06:00:53;;;;;;;8.80;8.10;;;17.90;99.90;;;;;;4996581;28;20501;-67
2022/09/10 06:03:20;;;;;;;6.77;6.27;;;18.00;99.90;;;;;;4995720;28;20451;-67
2022/09/10 06:05:50;;;;;;;7.50;6.90;;;18.00;99.90;;;;;;4995988;28;20406;-67
2022/09/10 06:08:22;;;;;;;6.43;5.97;;;18.10;99.90;;;;;;4995397;28;20419;-67
2022/09/10 06:10:59;;;;;;;5.97;5.67;;;18.20;99.90;;;;;;4978469;28;20526;-68
2022/09/10 06:13:26;;;;;;;7.00;6.40;;;18.30;99.90;;;;;;4994301;28;20395;-67
2022/09/10 06:15:52;;;;;;;6.03;5.63;;;18.40;99.90;;;;;;4995805;28;20965;-67
2022/09/10 06:18:19;;;;;;;6.00;5.60;;;18.50;99.90;;;;;;4995817;28;20411;-67
2022/09/10 06:20:46;;;;;;;6.10;5.70;;;18.50;99.90;;;;;;4996244;28;20827;-67
2022/09/10 06:23:16;;;;;;;6.40;5.90;;;18.50;99.90;;;;;;4995375;28;20445;-68
2022/09/10 06:25:43;;;;;;;5.67;5.30;;;18.50;99.90;;;;;;4996304;28;20419;-67
2022/09/10 06:28:11;;;;;;;5.83;5.53;;;18.50;99.90;;;;;;4995870;28;20407;-67
2022/09/10 06:30:38;;;;;;;5.90;5.50;;;18.50;99.90;;;;;;4995847;28;20493;-67
2022/09/10 06:33:03;;;;;;;6.37;5.80;;;18.60;99.90;;;;;;4996052;28;20406;-67
2022/09/10 06:35:32;;;;;;;6.10;5.70;;;18.60;99.90;;;;;;4994921;28;20546;-67
2022/09/10 06:37:58;;;;;;;6.07;5.67;;;18.70;99.90;;;;;;4995693;28;20219;-67
2022/09/10 06:40:26;;;;;;;6.40;5.80;;;18.70;99.90;;;;;;4995065;28;20406;-67
2022/09/10 06:42:52;;;;;;;5.67;5.27;;;18.70;99.90;;;;;;4978249;28;20427;-67
2022/09/10 06:45:18;;;;;;;5.20;4.90;;;18.70;99.90;;;;;;4995298;28;20758;-68
2022/09/10 06:47:44;;;;;;;6.93;6.43;;;18.80;99.90;;;;;;4995535;28;20404;-67
2022/09/10 06:50:10;;;;;;;6.90;6.40;;;18.80;99.90;;;;;;4995542;28;20186;-67
2022/09/10 06:52:36;;;;;;;6.50;6.00;;;18.90;99.90;;;;;;4994883;28;20184;-67
2022/09/10 06:55:03;;;;;;;6.50;6.10;;;18.90;99.90;;;;;;4995361;28;20183;-67
2022/09/10 06:57:28;;;;;;;6.40;6.00;;;18.90;99.90;;;;;;4994799;28;20415;-67
2022/09/10 06:59:54;;;;;;;7.10;6.60;;;18.90;99.90;;;;;;4995301;28;20411;-67
2022/09/10 07:02:19;;;;;;;6.40;6.00;;;18.90;99.90;;;;;;4994086;28;20212;-67
2022/09/10 07:04:45;;;;;;;9.23;8.27;;;19.00;99.90;;;;;;4995076;28;20184;-67
2022/09/10 07:07:11;;;;;;;8.50;7.90;;;19.00;99.90;;;;;;4994850;28;20330;-67
2022/09/10 07:09:36;;;;;;;7.43;6.87;;;19.00;99.90;;;;;;4994466;28;20513;-67
2022/09/10 07:12:03;;;;;;;7.23;6.23;;;19.00;99.90;;;;;;4995111;28;20183;-67
2022/09/10 07:14:29;;;;;;;7.10;6.60;;;19.00;99.90;;;;;;4994439;28;20176;-67
2022/09/10 07:16:56;;;;;;;6.23;5.83;;;19.00;99.90;;;;;;4977700;28;20423;-67
2022/09/10 07:19:22;;;;;;;6.00;5.50;;;19.00;99.90;;;;;;4994112;28;20548;-67
2022/09/10 07:21:48;;;;;;;6.53;6.13;;;19.00;99.90;;;;;;4994792;28;20458;-67
2022/09/10 07:24:13;;;;;;;6.60;6.10;;;19.00;99.90;;;;;;4977509;28;20184;-67
2022/09/10 07:26:39;;;;;;;8.10;7.50;;;19.00;99.90;;;;;;4993952;28;20437;-67
2022/09/10 07:29:06;;;;;;;8.20;7.60;;;19.10;99.90;;;;;;4994471;28;20263;-67
2022/09/10 07:31:34;;;;;;;7.53;7.03;;;19.10;99.90;;;;;;4976642;28;20423;-67
2022/09/10 07:34:01;;;;;;;7.53;6.97;;;19.10;99.90;;;;;;4994637;28;20411;-67
2022/09/10 07:36:27;;;;;;;6.80;6.40;;;19.10;99.90;;;;;;4993936;28;20458;-67
2022/09/10 07:39:02;;;;;;;6.53;6.13;;;19.20;99.90;;;;;;4944293;28;20437;-67
2022/09/10 07:41:29;;;;;;;8.57;7.87;;;19.20;99.90;;;;;;4993544;28;20850;-67
2022/09/10 07:43:56;;;;;;;7.83;7.13;;;19.20;99.90;;;;;;4976935;28;20458;-68
2022/09/10 07:46:24;;;;;;;6.40;5.90;;;19.20;99.90;;;;;;4993837;28;20415;-69
2022/09/10 07:48:55;;;;;;;5.90;5.50;;;19.20;99.90;;;;;;4994370;28;20403;-66
2022/09/10 07:51:22;;;;;;;5.70;5.10;;;19.30;99.90;;;;;;4993529;28;20419;-65
2022/09/10 07:53:52;;;;;;;7.07;5.60;;;19.50;99.90;;;;;;4994012;28;20414;-65
2022/09/10 07:56:18;;;;;;;5.67;5.33;;;19.30;99.90;;;;;;4993748;28;20395;-66
2022/09/10 07:58:43;;;;;;;5.37;4.97;;;19.30;99.90;;;;;;4994206;28;20418;-66
2022/09/10 08:01:11;;;;;;;5.33;5.03;;;19.60;99.90;;;;;;5011589;28;20202;-65
2022/09/10 08:03:38;;;;;;;5.77;5.37;;;19.80;99.90;;;;;;5011928;28;20190;-65
2022/09/10 08:06:05;;;;;;;5.80;5.30;;;19.90;99.90;;;;;;5013748;28;20754;-65
2022/09/10 08:08:34;;;;;;;5.60;5.20;;;20.10;99.90;;;;;;4986884;28;20423;-66
2022/09/10 08:11:06;;;;;;;5.13;4.83;;;20.20;99.90;;;;;;4993667;28;20427;-65
2022/09/10 08:13:35;;;;;;;6.30;5.80;;;20.20;99.90;;;;;;4993526;28;20418;-66
2022/09/10 08:16:07;;;;;;;5.10;4.80;;;20.10;99.90;;;;;;4993307;28;20450;-66
2022/09/10 08:18:34;;;;;;;5.67;5.37;;;20.10;99.90;;;;;;4993154;28;20490;-66
2022/09/10 08:21:00;;;;;;;4.97;4.70;;;19.60;99.90;;;;;;4993769;28;20840;-66
2022/09/10 08:23:27;;;;;;;5.70;5.33;;;19.60;99.90;;;;;;4997808;28;20429;-66
2022/09/10 08:25:53;;;;;;;5.37;5.07;;;19.70;99.90;;;;;;4993128;28;20493;-65
2022/09/10 08:28:20;;;;;;;5.57;5.17;;;19.70;99.90;;;;;;4997757;28;20493;-70
2022/09/10 08:30:59;;;;;;;5.40;5.10;;;19.70;99.90;;;;;;4993761;28;20852;-65
2022/09/10 08:33:25;;;;;;;6.57;6.10;;;19.60;99.90;;;;;;5000314;28;20419;-66
2022/09/10 08:35:56;;;;;;;6.63;6.13;;;19.30;99.90;;;;;;5000780;28;20462;-65
2022/09/10 08:38:28;;;;;;;6.50;5.90;;;19.30;99.90;;;;;;5001944;28;20421;-66
2022/09/10 08:40:55;;;;;;;5.90;5.50;;;19.10;99.90;;;;;;4993527;28;20470;-65
2022/09/10 08:43:32;;;;;;;5.93;5.63;;;19.10;99.90;;;;;;5003677;28;20925;-66
2022/09/10 08:46:04;;;;;;;6.60;6.20;;;19.20;99.90;;;;;;5012883;28;20969;-65
2022/09/10 08:48:35;;;;;;;6.83;6.33;;;19.20;99.90;;;;;;5012532;28;20404;-65
2022/09/10 08:51:14;;;;;;;6.67;6.27;;;19.30;99.90;;;;;;5013039;28;20478;-66
2022/09/10 08:53:46;;;;;;;6.23;5.93;;;19.50;99.90;;;;;;5012440;28;21045;-66
2022/09/10 08:56:32;;;;;;;14.13;12.70;;;19.10;99.90;;;;;;5012815;28;20421;-67
2022/09/10 08:59:12;;;;;;;10.40;9.57;;;19.10;99.90;;;;;;5004341;28;20462;-66
2022/09/10 09:01:49;;;;;;;43.47;34.47;;;19.00;99.90;;;;;;4992495;28;20504;-67
2022/09/10 09:04:27;;;;;;;21.87;19.50;;;19.20;99.90;;;;;;4993139;28;20436;-67
2022/09/10 09:06:59;;;;;;;6.97;6.37;;;19.30;99.90;;;;;;4993387;28;20415;-66
2022/09/10 09:09:24;;;;;;;6.20;5.70;;;19.30;99.90;;;;;;4992712;28;20851;-67
2022/09/10 09:11:53;;;;;;;6.03;5.63;;;19.20;99.90;;;;;;4993196;28;20422;-66
2022/09/10 09:14:34;;;;;;;6.77;6.17;;;18.80;99.90;;;;;;4993200;28;20225;-66
2022/09/10 09:17:15;;;;;;;7.60;7.00;;;19.00;99.90;;;;;;4992803;28;20933;-66
2022/09/10 09:19:48;;;;;;;7.43;7.03;;;19.30;99.90;;;;;;4992574;28;20403;-66
2022/09/10 09:22:19;;;;;;;7.10;6.77;;;19.30;99.90;;;;;;4993019;28;20466;-66
2022/09/10 09:24:57;;;;;;;7.90;7.50;;;19.00;99.90;;;;;;4992704;28;20427;-66
2022/09/10 09:27:27;;;;;;;7.90;7.50;;;19.00;99.90;;;;;;4996118;28;20447;-73
2022/09/10 09:30:01;;;;;;;6.83;6.43;;;18.90;99.90;;;;;;4997126;28;20395;-66
2022/09/10 09:32:31;;;;;;;6.10;5.70;;;19.00;99.90;;;;;;4996692;28;20430;-67
2022/09/10 09:35:15;;;;;;;6.20;5.80;;;19.10;99.90;;;;;;4996845;28;20429;-66
2022/09/10 09:37:47;;;;;;;5.70;5.40;;;19.20;99.90;;;;;;4996322;28;20415;-66
2022/09/10 09:40:40;;;;;;;6.50;6.10;;;19.30;99.90;;;;;;4996808;28;20465;-67
2022/09/10 09:43:22;;;;;;;6.40;5.80;;;19.60;99.90;;;;;;4996833;28;20465;-66
2022/09/10 09:45:52;;;;;;;6.27;5.87;;;19.60;99.90;;;;;;4978750;28;20430;-66
2022/09/10 09:48:19;;;;;;;6.57;5.97;;;19.60;99.90;;;;;;4996686;28;20417;-66
2022/09/10 09:50:48;;;;;;;7.47;6.87;;;19.70;99.90;;;;;;4995679;28;20441;-66
2022/09/10 09:53:24;;;;;;;24.27;21.87;;;19.60;99.90;;;;;;4996679;28;20497;-67
2022/09/10 09:55:52;;;;;;;144.33;119.17;;;19.50;99.90;;;;;;4996628;28;20883;-66
2022/09/10 09:58:21;;;;;;;10.70;9.70;;;19.40;99.90;;;;;;4996439;28;20465;-66
2022/09/10 10:01:04;;;;;;;8.60;8.10;;;19.10;99.90;;;;;;4995699;28;20926;-66
2022/09/10 10:03:53;;;;;;;9.27;8.60;;;19.00;99.90;;;;;;4995934;28;20450;-66
2022/09/10 10:06:46;;;;;;;8.20;7.70;;;19.00;99.90;;;;;;4996462;28;20418;-66
2022/09/10 10:09:21;;;;;;;10.57;9.67;;;19.20;99.90;;;;;;4996567;28;20410;-66
2022/09/10 10:11:54;;;;;;;7.97;7.47;;;19.30;99.90;;;;;;4995656;28;20406;-66
2022/09/10 10:14:21;;;;;;;9.77;8.97;;;19.40;99.90;;;;;;4996274;28;20419;-66
2022/09/10 10:16:52;;;;;;;10.70;9.60;;;19.30;99.90;;;;;;4995541;28;20399;-66
2022/09/10 10:19:31;;;;;;;9.00;8.40;;;19.20;99.90;;;;;;4978587;28;20919;-66
2022/09/10 10:22:12;;;;;;;9.43;8.63;;;19.00;99.90;;;;;;4995892;28;20462;-66
2022/09/10 10:24:38;;;;;;;8.83;7.97;;;19.20;99.90;;;;;;4995425;28;20895;-66
2022/09/10 10:27:04;;;;;;;8.77;8.17;;;19.10;99.90;;;;;;4978652;28;20509;-66
2022/09/10 10:29:29;;;;;;;9.03;8.27;;;19.10;99.90;;;;;;4977932;28;20411;-67
2022/09/10 10:31:56;;;;;;;8.73;8.23;;;19.30;99.90;;;;;;4995618;28;20655;-66
2022/09/10 10:34:36;;;;;;;9.17;8.33;;;19.30;99.90;;;;;;4995734;28;20183;-66
2022/09/10 10:37:34;;;;;;;8.70;8.17;;;19.00;99.90;;;;;;4994635;28;20490;-66
2022/09/10 10:40:13;;;;;;;8.77;7.97;;;19.10;99.90;;;;;;4978498;28;20477;-62
2022/09/10 10:42:52;;;;;;;8.67;8.07;;;18.90;99.90;;;;;;4994759;28;20497;-62
2022/09/10 10:45:49;;;;;;;9.20;8.60;;;19.00;99.90;;;;;;4978248;28;20449;-62
2022/09/10 10:48:39;;;;;;;10.67;9.87;;;18.70;99.90;;;;;;4995677;28;20416;-62
2022/09/10 10:51:30;;;;;;;12.13;11.03;;;18.70;99.90;;;;;;4995642;28;20435;-62
2022/09/10 10:54:32;;;;;;;11.07;10.40;;;18.60;99.90;;;;;;4995456;28;20417;-62
2022/09/10 10:57:30;;;;;;;9.33;8.63;;;18.50;99.90;;;;;;4995549;28;20403;-62
2022/09/10 11:00:07;;;;;;;9.40;8.70;;;18.50;99.90;;;;;;4995655;28;20414;-62
2022/09/10 11:02:53;;;;;;;9.77;9.17;;;18.50;99.90;;;;;;4994727;28;20504;-62
2022/09/10 11:05:34;;;;;;;8.27;7.77;;;18.60;99.90;;;;;;4995242;28;20457;-63
2022/09/10 11:08:15;;;;;;;8.50;7.90;;;18.60;99.90;;;;;;4995296;28;20472;-62
2022/09/10 11:10:46;;;;;;;8.00;7.40;;;18.60;99.90;;;;;;4994970;28;20411;-62
2022/09/10 11:13:17;;;;;;;8.93;8.23;;;18.60;99.90;;;;;;4995124;28;20891;-62
2022/09/10 11:16:24;;;;;;;7.30;6.90;;;18.70;99.90;;;;;;4994540;28;20399;-62
2022/09/10 11:19:00;;;;;;;8.00;7.50;;;18.60;99.90;;;;;;4896347;29;20503;-62
2022/09/10 11:21:44;;;;;;;6.77;6.27;;;18.50;99.90;;;;;;4981626;28;20467;-62
2022/09/10 11:24:24;;;;;;;6.90;6.40;;;18.30;99.90;;;;;;4994938;28;20518;-61
2022/09/10 11:26:57;;;;;;;8.73;8.13;;;18.10;99.90;;;;;;4994232;28;20450;-61
2022/09/10 11:29:53;;;;;;;8.33;7.80;;;17.90;99.90;;;;;;4994592;28;20932;-62
2022/09/10 11:32:57;;;;;;;7.10;6.70;;;17.90;99.90;;;;;;4994831;28;20407;-62
2022/09/10 11:35:34;;;;;;;7.43;6.93;;;18.00;99.90;;;;;;4940670;28;20816;-62
2022/09/10 11:38:23;;;;;;;8.60;7.87;;;18.00;99.90;;;;;;4994397;28;20486;-62
2022/09/10 11:40:55;;;;;;;8.80;8.30;;;18.10;99.90;;;;;;4993930;28;20507;-62
2022/09/10 11:43:53;;;;;;;7.70;7.00;;;18.20;99.90;;;;;;4994653;28;20399;-62
2022/09/10 11:46:22;;;;;;;6.83;6.43;;;18.20;99.90;;;;;;4994488;28;20406;-62
2022/09/10 11:49:02;;;;;;;8.00;7.50;;;18.20;99.90;;;;;;4993792;28;20422;-62
2022/09/10 11:51:36;;;;;;;7.40;6.97;;;18.20;99.90;;;;;;4994332;28;20510;-62
2022/09/10 11:54:08;;;;;;;9.43;8.70;;;18.30;99.90;;;;;;4994358;28;20865;-62
2022/09/10 11:57:02;;;;;;;8.67;7.87;;;18.30;99.90;;;;;;4976321;28;20938;-62
2022/09/10 11:59:56;;;;;;;8.60;7.80;;;18.30;99.90;;;;;;4993992;28;20755;-61
2022/09/10 12:02:51;;;;;;;5.30;4.90;;;18.40;99.90;;;;;;4993790;28;20454;-62
2022/09/10 12:05:41;;;;;;;4.50;4.20;;;18.30;99.90;;;;;;4976987;28;20525;-62
2022/09/10 12:08:27;;;;;;;4.50;4.27;;;18.30;99.90;;;;;;4994344;28;20414;-62
2022/09/10 12:11:30;;;;;;;5.20;5.00;;;18.30;99.90;;;;;;4993492;28;20422;-62
2022/09/10 12:14:04;;;;;;;4.50;4.20;;;18.40;99.90;;;;;;4992288;28;20415;-62
2022/09/10 12:16:57;;;;;;;3.77;3.67;;;18.40;99.90;;;;;;4993993;28;20434;-62
2022/09/10 12:19:39;;;;;;;4.60;4.40;;;18.50;99.90;;;;;;4993915;28;20801;-62
2022/09/10 12:22:23;;;;;;;4.93;4.60;;;18.60;99.90;;;;;;4993787;28;20938;-62
2022/09/10 12:24:53;;;;;;;6.27;5.93;;;18.70;99.90;;;;;;4993191;28;20399;-62
2022/09/10 12:27:19;;;;;;;6.30;5.90;;;18.90;99.90;;;;;;4993679;28;20392;-62
2022/09/10 12:29:46;;;;;;;7.13;6.60;;;19.00;99.90;;;;;;4993092;28;20411;-62
2022/09/10 12:32:27;;;;;;;6.77;6.27;;;19.20;99.90;;;;;;4993665;28;20454;-62
2022/09/10 12:35:30;;;;;;;7.30;6.70;;;19.10;99.90;;;;;;4992846;28;20411;-62
2022/09/10 12:38:34;;;;;;;7.37;6.80;;;19.20;99.90;;;;;;4992941;28;20513;-62
2022/09/10 12:41:01;;;;;;;8.20;7.60;;;19.40;99.90;;;;;;4993119;28;21008;-62
2022/09/10 12:43:39;;;;;;;7.47;6.87;;;19.40;99.90;;;;;;4993232;28;20423;-62
2022/09/10 12:46:08;;;;;;;8.10;7.50;;;19.40;99.90;;;;;;4993463;28;20879;-62
2022/09/10 12:48:49;;;;;;;7.73;7.17;;;19.40;99.90;;;;;;4993130;28;20980;-62
2022/09/10 12:51:15;;;;;;;8.13;7.57;;;19.40;99.90;;;;;;4993123;28;20899;-62
2022/09/10 12:54:01;;;;;;;7.20;6.67;;;19.40;99.90;;;;;;4992769;28;20461;-62
2022/09/10 12:57:11;;;;;;;6.47;6.07;;;19.40;99.90;;;;;;4976003;28;20203;-62
2022/09/10 12:59:58;;;;;;;8.20;7.60;;;19.40;99.90;;;;;;4992641;28;20415;-62
2022/09/10 13:02:34;;;;;;;7.90;7.40;;;19.40;99.90;;;;;;4993112;28;20450;-62
2022/09/10 13:05:25;;;;;;;8.03;7.43;;;19.40;99.90;;;;;;4992508;28;20902;-62
2022/09/10 13:08:24;;;;;;;8.50;7.87;;;19.50;99.90;;;;;;4992634;28;20401;-62
2022/09/10 13:10:57;;;;;;;9.10;8.40;;;19.60;99.90;;;;;;4986861;28;20465;-62